sensor_id;sensor_type;location;lat;lon;timestamp;P1;durP1;ratioP1;P2;durP2;ratioP2
16346;SDS011;8283;48.504;13.734;2023-02-02T00:00:05;4.55;;;1.50;;
16346;SDS011;8283;48.504;13.734;2023-02-02T00:02:50;5.20;;;1.50;;
16346;SDS011;8283;48.504;13.734;2023-02-02T00:05:34;3.33;;;1.20;;
16346;SDS011;8283;48.504;13.734;2023-02-02T00:08:19;3.83;;;1.65;;
16346;SDS011;8283;48.504;13.734;2023-02-02T00:11:04;7.72;;;1.83;;
16346;SDS011;8283;48.504;13.734;2023-02-02T00:13:49;2.13;;;1.30;;
16346;SDS011;8283;48.504;13.734;2023-02-02T00:16:46;5.63;;;1.80;;
16346;SDS011;8283;48.504;13.734;2023-02-02T00:19:34;3.25;;;1.67;;
16346;SDS011;8283;48.504;13.734;2023-02-02T00:22:19;3.25;;;1.88;;
16346;SDS011;8283;48.504;13.734;2023-02-02T00:25:03;3.13;;;1.92;;
16346;SDS011;8283;48.504;13.734;2023-02-02T00:27:48;3.88;;;1.40;;
16346;SDS011;8283;48.504;13.734;2023-02-02T00:30:32;3.03;;;1.52;;
16346;SDS011;8283;48.504;13.734;2023-02-02T00:33:17;7.32;;;1.73;;
16346;SDS011;8283;48.504;13.734;2023-02-02T00:36:01;3.97;;;1.38;;
16346;SDS011;8283;48.504;13.734;2023-02-02T00:38:46;4.20;;;1.52;;
16346;SDS011;8283;48.504;13.734;2023-02-02T00:41:32;3.38;;;1.25;;
16346;SDS011;8283;48.504;13.734;2023-02-02T00:44:16;5.25;;;1.10;;
16346;SDS011;8283;48.504;13.734;2023-02-02T00:47:19;5.15;;;1.50;;
16346;SDS011;8283;48.504;13.734;2023-02-02T00:50:05;4.43;;;1.55;;
16346;SDS011;8283;48.504;13.734;2023-02-02T00:52:50;3.58;;;1.17;;
16346;SDS011;8283;48.504;13.734;2023-02-02T00:55:35;4.32;;;1.20;;
16346;SDS011;8283;48.504;13.734;2023-02-02T00:58:19;2.22;;;1.02;;
16346;SDS011;8283;48.504;13.734;2023-02-02T01:01:04;4.93;;;1.45;;
16346;SDS011;8283;48.504;13.734;2023-02-02T01:03:49;5.22;;;1.60;;
16346;SDS011;8283;48.504;13.734;2023-02-02T01:06:33;1.92;;;1.38;;
16346;SDS011;8283;48.504;13.734;2023-02-02T01:09:18;2.15;;;1.15;;
16346;SDS011;8283;48.504;13.734;2023-02-02T01:12:03;5.00;;;1.20;;
16346;SDS011;8283;48.504;13.734;2023-02-02T01:14:48;2.53;;;1.13;;
16346;SDS011;8283;48.504;13.734;2023-02-02T01:17:33;3.40;;;1.20;;
16346;SDS011;8283;48.504;13.734;2023-02-02T01:20:18;2.42;;;1.00;;
16346;SDS011;8283;48.504;13.734;2023-02-02T01:23:03;5.30;;;1.17;;
16346;SDS011;8283;48.504;13.734;2023-02-02T01:25:55;3.38;;;1.35;;
16346;SDS011;8283;48.504;13.734;2023-02-02T01:28:40;4.28;;;1.35;;
16346;SDS011;8283;48.504;13.734;2023-02-02T01:31:25;3.42;;;1.27;;
16346;SDS011;8283;48.504;13.734;2023-02-02T01:34:10;8.85;;;1.40;;
16346;SDS011;8283;48.504;13.734;2023-02-02T01:36:54;4.00;;;1.35;;
16346;SDS011;8283;48.504;13.734;2023-02-02T01:39:39;9.52;;;2.10;;
16346;SDS011;8283;48.504;13.734;2023-02-02T01:42:23;3.05;;;1.27;;
16346;SDS011;8283;48.504;13.734;2023-02-02T01:45:23;3.00;;;1.30;;
16346;SDS011;8283;48.504;13.734;2023-02-02T01:48:11;3.83;;;1.40;;
16346;SDS011;8283;48.504;13.734;2023-02-02T01:50:58;5.82;;;1.50;;
16346;SDS011;8283;48.504;13.734;2023-02-02T01:53:46;1.70;;;1.30;;
16346;SDS011;8283;48.504;13.734;2023-02-02T01:56:35;1.27;;;1.10;;
16346;SDS011;8283;48.504;13.734;2023-02-02T01:59:23;0.68;;;0.40;;
16346;SDS011;8283;48.504;13.734;2023-02-02T02:02:09;0.60;;;0.43;;
16346;SDS011;8283;48.504;13.734;2023-02-02T02:04:55;0.45;;;0.30;;
16346;SDS011;8283;48.504;13.734;2023-02-02T02:07:40;0.43;;;0.20;;
16346;SDS011;8283;48.504;13.734;2023-02-02T02:10:27;0.13;;;0.13;;
16346;SDS011;8283;48.504;13.734;2023-02-02T02:13:11;0.40;;;0.28;;
16346;SDS011;8283;48.504;13.734;2023-02-02T02:16:05;0.30;;;0.30;;
16346;SDS011;8283;48.504;13.734;2023-02-02T02:19:27;0.10;;;0.10;;
16346;SDS011;8283;48.504;13.734;2023-02-02T02:35:33;0.47;;;0.15;;
16346;SDS011;8283;48.504;13.734;2023-02-02T02:38:32;0.10;;;0.10;;
16346;SDS011;8283;48.504;13.734;2023-02-02T02:41:22;0.10;;;0.10;;
16346;SDS011;8283;48.504;13.734;2023-02-02T02:44:13;0.03;;;0.03;;
16346;SDS011;8283;48.504;13.734;2023-02-02T02:47:00;0.00;;;0.00;;
16346;SDS011;8283;48.504;13.734;2023-02-02T02:49:46;0.35;;;0.20;;
16346;SDS011;8283;48.504;13.734;2023-02-02T02:52:31;0.10;;;0.10;;
16346;SDS011;8283;48.504;13.734;2023-02-02T02:55:17;0.25;;;0.08;;
16346;SDS011;8283;48.504;13.734;2023-02-02T02:58:06;0.00;;;0.00;;
16346;SDS011;8283;48.504;13.734;2023-02-02T03:01:11;0.10;;;0.10;;
16346;SDS011;8283;48.504;13.734;2023-02-02T03:04:11;0.75;;;0.10;;
16346;SDS011;8283;48.504;13.734;2023-02-02T03:07:21;0.10;;;0.10;;
16346;SDS011;8283;48.504;13.734;2023-02-02T03:10:12;0.10;;;0.10;;
16346;SDS011;8283;48.504;13.734;2023-02-02T03:12:59;0.10;;;0.10;;
16346;SDS011;8283;48.504;13.734;2023-02-02T03:15:45;0.08;;;0.08;;
16346;SDS011;8283;48.504;13.734;2023-02-02T03:18:30;0.00;;;0.00;;
16346;SDS011;8283;48.504;13.734;2023-02-02T03:21:15;0.10;;;0.10;;
16346;SDS011;8283;48.504;13.734;2023-02-02T03:24:00;0.10;;;0.10;;
16346;SDS011;8283;48.504;13.734;2023-02-02T03:26:44;0.25;;;0.22;;
16346;SDS011;8283;48.504;13.734;2023-02-02T03:29:29;0.10;;;0.10;;
16346;SDS011;8283;48.504;13.734;2023-02-02T03:32:13;0.08;;;0.08;;
16346;SDS011;8283;48.504;13.734;2023-02-02T03:34:58;0.30;;;0.10;;
16346;SDS011;8283;48.504;13.734;2023-02-02T03:37:42;0.30;;;0.10;;
16346;SDS011;8283;48.504;13.734;2023-02-02T03:40:27;0.00;;;0.00;;
16346;SDS011;8283;48.504;13.734;2023-02-02T03:43:12;0.00;;;0.00;;
16346;SDS011;8283;48.504;13.734;2023-02-02T03:45:57;0.00;;;0.00;;
16346;SDS011;8283;48.504;13.734;2023-02-02T03:48:42;0.00;;;0.00;;
16346;SDS011;8283;48.504;13.734;2023-02-02T03:51:26;0.35;;;0.20;;
16346;SDS011;8283;48.504;13.734;2023-02-02T03:54:11;0.28;;;0.10;;
16346;SDS011;8283;48.504;13.734;2023-02-02T03:56:55;0.00;;;0.00;;
16346;SDS011;8283;48.504;13.734;2023-02-02T03:59:39;0.30;;;0.10;;
16346;SDS011;8283;48.504;13.734;2023-02-02T04:02:24;0.10;;;0.10;;
16346;SDS011;8283;48.504;13.734;2023-02-02T04:05:08;0.10;;;0.03;;
16346;SDS011;8283;48.504;13.734;2023-02-02T04:07:52;0.10;;;0.10;;
16346;SDS011;8283;48.504;13.734;2023-02-02T04:10:37;0.50;;;0.10;;
16346;SDS011;8283;48.504;13.734;2023-02-02T04:13:25;0.20;;;0.10;;
16346;SDS011;8283;48.504;13.734;2023-02-02T04:16:10;0.20;;;0.20;;
16346;SDS011;8283;48.504;13.734;2023-02-02T04:18:54;0.10;;;0.10;;
16346;SDS011;8283;48.504;13.734;2023-02-02T04:21:39;0.08;;;0.08;;
16346;SDS011;8283;48.504;13.734;2023-02-02T04:24:24;0.10;;;0.10;;
16346;SDS011;8283;48.504;13.734;2023-02-02T04:27:08;0.15;;;0.10;;
16346;SDS011;8283;48.504;13.734;2023-02-02T04:29:52;0.20;;;0.10;;
16346;SDS011;8283;48.504;13.734;2023-02-02T04:32:36;0.38;;;0.13;;
16346;SDS011;8283;48.504;13.734;2023-02-02T04:35:21;0.10;;;0.10;;
16346;SDS011;8283;48.504;13.734;2023-02-02T04:38:05;0.10;;;0.10;;
16346;SDS011;8283;48.504;13.734;2023-02-02T04:40:50;0.10;;;0.10;;
16346;SDS011;8283;48.504;13.734;2023-02-02T04:43:34;0.13;;;0.13;;
16346;SDS011;8283;48.504;13.734;2023-02-02T04:46:19;0.38;;;0.10;;
16346;SDS011;8283;48.504;13.734;2023-02-02T04:49:04;0.10;;;0.10;;
16346;SDS011;8283;48.504;13.734;2023-02-02T04:51:49;0.00;;;0.00;;
16346;SDS011;8283;48.504;13.734;2023-02-02T04:54:33;0.10;;;0.10;;
16346;SDS011;8283;48.504;13.734;2023-02-02T04:57:18;0.10;;;0.10;;
16346;SDS011;8283;48.504;13.734;2023-02-02T05:00:02;0.10;;;0.10;;
16346;SDS011;8283;48.504;13.734;2023-02-02T05:02:47;0.05;;;0.05;;
16346;SDS011;8283;48.504;13.734;2023-02-02T05:05:31;0.10;;;0.10;;
16346;SDS011;8283;48.504;13.734;2023-02-02T05:08:15;0.08;;;0.05;;
16346;SDS011;8283;48.504;13.734;2023-02-02T05:11:04;0.03;;;0.03;;
16346;SDS011;8283;48.504;13.734;2023-02-02T05:13:53;0.10;;;0.10;;
16346;SDS011;8283;48.504;13.734;2023-02-02T05:16:38;0.00;;;0.00;;
16346;SDS011;8283;48.504;13.734;2023-02-02T05:19:22;0.82;;;0.10;;
16346;SDS011;8283;48.504;13.734;2023-02-02T05:22:06;0.15;;;0.15;;
16346;SDS011;8283;48.504;13.734;2023-02-02T05:24:51;0.05;;;0.05;;
16346;SDS011;8283;48.504;13.734;2023-02-02T05:27:35;0.30;;;0.30;;
16346;SDS011;8283;48.504;13.734;2023-02-02T05:30:19;0.55;;;0.30;;
16346;SDS011;8283;48.504;13.734;2023-02-02T05:33:04;0.17;;;0.17;;
16346;SDS011;8283;48.504;13.734;2023-02-02T05:35:48;0.40;;;0.40;;
16346;SDS011;8283;48.504;13.734;2023-02-02T05:38:33;0.43;;;0.30;;
16346;SDS011;8283;48.504;13.734;2023-02-02T05:41:18;0.35;;;0.20;;
16346;SDS011;8283;48.504;13.734;2023-02-02T05:44:02;0.28;;;0.17;;
16346;SDS011;8283;48.504;13.734;2023-02-02T05:46:47;0.95;;;0.90;;
16346;SDS011;8283;48.504;13.734;2023-02-02T05:49:31;0.85;;;0.43;;
16346;SDS011;8283;48.504;13.734;2023-02-02T05:52:17;0.30;;;0.25;;
16346;SDS011;8283;48.504;13.734;2023-02-02T05:55:05;0.15;;;0.15;;
16346;SDS011;8283;48.504;13.734;2023-02-02T05:57:49;0.30;;;0.20;;
16346;SDS011;8283;48.504;13.734;2023-02-02T06:00:34;0.10;;;0.10;;
16346;SDS011;8283;48.504;13.734;2023-02-02T06:03:18;0.30;;;0.20;;
16346;SDS011;8283;48.504;13.734;2023-02-02T06:06:02;0.38;;;0.30;;
16346;SDS011;8283;48.504;13.734;2023-02-02T06:08:47;0.63;;;0.30;;
16346;SDS011;8283;48.504;13.734;2023-02-02T06:11:32;0.20;;;0.20;;
16346;SDS011;8283;48.504;13.734;2023-02-02T06:14:16;0.20;;;0.20;;
16346;SDS011;8283;48.504;13.734;2023-02-02T06:17:00;0.40;;;0.40;;
16346;SDS011;8283;48.504;13.734;2023-02-02T06:19:44;0.15;;;0.15;;
16346;SDS011;8283;48.504;13.734;2023-02-02T06:22:29;0.40;;;0.40;;
16346;SDS011;8283;48.504;13.734;2023-02-02T06:25:15;0.10;;;0.10;;
16346;SDS011;8283;48.504;13.734;2023-02-02T06:28:00;0.30;;;0.30;;
16346;SDS011;8283;48.504;13.734;2023-02-02T06:30:44;0.10;;;0.10;;
16346;SDS011;8283;48.504;13.734;2023-02-02T06:33:28;0.30;;;0.30;;
16346;SDS011;8283;48.504;13.734;2023-02-02T06:36:13;0.20;;;0.20;;
16346;SDS011;8283;48.504;13.734;2023-02-02T06:38:57;0.45;;;0.30;;
16346;SDS011;8283;48.504;13.734;2023-02-02T06:41:41;0.22;;;0.10;;
16346;SDS011;8283;48.504;13.734;2023-02-02T06:44:28;1.38;;;0.40;;
16346;SDS011;8283;48.504;13.734;2023-02-02T06:47:13;0.32;;;0.30;;
16346;SDS011;8283;48.504;13.734;2023-02-02T06:49:57;0.35;;;0.20;;
16346;SDS011;8283;48.504;13.734;2023-02-02T06:52:51;0.35;;;0.35;;
16346;SDS011;8283;48.504;13.734;2023-02-02T06:55:36;1.38;;;0.40;;
16346;SDS011;8283;48.504;13.734;2023-02-02T06:58:21;0.52;;;0.30;;
16346;SDS011;8283;48.504;13.734;2023-02-02T07:01:09;0.43;;;0.40;;
16346;SDS011;8283;48.504;13.734;2023-02-02T07:03:55;0.75;;;0.45;;
16346;SDS011;8283;48.504;13.734;2023-02-02T07:06:39;0.80;;;0.60;;
16346;SDS011;8283;48.504;13.734;2023-02-02T07:09:24;0.57;;;0.40;;
16346;SDS011;8283;48.504;13.734;2023-02-02T07:12:08;0.85;;;0.70;;
16346;SDS011;8283;48.504;13.734;2023-02-02T07:14:52;0.65;;;0.50;;
16346;SDS011;8283;48.504;13.734;2023-02-02T07:17:37;0.77;;;0.32;;
16346;SDS011;8283;48.504;13.734;2023-02-02T07:20:21;0.55;;;0.40;;
16346;SDS011;8283;48.504;13.734;2023-02-02T07:23:05;0.82;;;0.50;;
16346;SDS011;8283;48.504;13.734;2023-02-02T07:25:58;0.85;;;0.50;;
16346;SDS011;8283;48.504;13.734;2023-02-02T07:28:46;0.50;;;0.30;;
16346;SDS011;8283;48.504;13.734;2023-02-02T07:31:31;0.32;;;0.20;;
16346;SDS011;8283;48.504;13.734;2023-02-02T07:34:16;0.20;;;0.20;;
16346;SDS011;8283;48.504;13.734;2023-02-02T07:37:00;0.75;;;0.25;;
16346;SDS011;8283;48.504;13.734;2023-02-02T07:39:44;0.57;;;0.43;;
16346;SDS011;8283;48.504;13.734;2023-02-02T07:42:29;1.27;;;0.60;;
16346;SDS011;8283;48.504;13.734;2023-02-02T07:45:14;2.28;;;0.55;;
16346;SDS011;8283;48.504;13.734;2023-02-02T07:47:58;0.63;;;0.30;;
16346;SDS011;8283;48.504;13.734;2023-02-02T07:50:43;2.53;;;1.30;;
16346;SDS011;8283;48.504;13.734;2023-02-02T07:53:27;1.02;;;0.60;;
16346;SDS011;8283;48.504;13.734;2023-02-02T07:56:13;0.30;;;0.30;;
16346;SDS011;8283;48.504;13.734;2023-02-02T07:58:59;0.35;;;0.22;;
16346;SDS011;8283;48.504;13.734;2023-02-02T08:01:44;0.30;;;0.30;;
16346;SDS011;8283;48.504;13.734;2023-02-02T08:04:28;0.30;;;0.30;;
16346;SDS011;8283;48.504;13.734;2023-02-02T08:07:13;0.45;;;0.28;;
16346;SDS011;8283;48.504;13.734;2023-02-02T08:09:57;0.73;;;0.57;;
16346;SDS011;8283;48.504;13.734;2023-02-02T08:12:42;0.10;;;0.10;;
16346;SDS011;8283;48.504;13.734;2023-02-02T08:15:26;0.73;;;0.17;;
16346;SDS011;8283;48.504;13.734;2023-02-02T08:18:10;0.50;;;0.30;;
16346;SDS011;8283;48.504;13.734;2023-02-02T08:20:58;0.63;;;0.35;;
16346;SDS011;8283;48.504;13.734;2023-02-02T08:23:43;0.57;;;0.40;;
16346;SDS011;8283;48.504;13.734;2023-02-02T08:26:29;0.30;;;0.30;;
16346;SDS011;8283;48.504;13.734;2023-02-02T08:29:14;0.43;;;0.28;;
16346;SDS011;8283;48.504;13.734;2023-02-02T08:32:00;1.70;;;0.40;;
16346;SDS011;8283;48.504;13.734;2023-02-02T08:34:46;1.25;;;0.63;;
16346;SDS011;8283;48.504;13.734;2023-02-02T08:37:31;0.70;;;0.52;;
16346;SDS011;8283;48.504;13.734;2023-02-02T08:40:15;1.30;;;0.65;;
16346;SDS011;8283;48.504;13.734;2023-02-02T08:43:00;2.13;;;1.10;;
16346;SDS011;8283;48.504;13.734;2023-02-02T08:45:46;0.40;;;0.32;;
16346;SDS011;8283;48.504;13.734;2023-02-02T08:48:32;0.25;;;0.25;;
16346;SDS011;8283;48.504;13.734;2023-02-02T08:51:18;0.63;;;0.50;;
16346;SDS011;8283;48.504;13.734;2023-02-02T08:54:02;1.73;;;0.50;;
16346;SDS011;8283;48.504;13.734;2023-02-02T08:56:47;0.82;;;0.63;;
16346;SDS011;8283;48.504;13.734;2023-02-02T08:59:31;0.98;;;0.68;;
16346;SDS011;8283;48.504;13.734;2023-02-02T09:02:16;0.98;;;0.70;;
16346;SDS011;8283;48.504;13.734;2023-02-02T09:05:01;0.25;;;0.25;;
16346;SDS011;8283;48.504;13.734;2023-02-02T09:07:45;0.57;;;0.40;;
16346;SDS011;8283;48.504;13.734;2023-02-02T09:10:33;0.60;;;0.55;;
16346;SDS011;8283;48.504;13.734;2023-02-02T09:13:18;0.60;;;0.60;;
16346;SDS011;8283;48.504;13.734;2023-02-02T09:16:03;0.77;;;0.68;;
16346;SDS011;8283;48.504;13.734;2023-02-02T09:18:51;0.50;;;0.30;;
16346;SDS011;8283;48.504;13.734;2023-02-02T09:21:36;0.68;;;0.38;;
16346;SDS011;8283;48.504;13.734;2023-02-02T09:24:21;0.28;;;0.28;;
16346;SDS011;8283;48.504;13.734;2023-02-02T09:27:05;0.40;;;0.30;;
16346;SDS011;8283;48.504;13.734;2023-02-02T09:29:50;0.40;;;0.30;;
16346;SDS011;8283;48.504;13.734;2023-02-02T09:32:35;1.08;;;0.43;;
16346;SDS011;8283;48.504;13.734;2023-02-02T09:35:19;0.30;;;0.30;;
16346;SDS011;8283;48.504;13.734;2023-02-02T09:38:04;1.65;;;0.50;;
16346;SDS011;8283;48.504;13.734;2023-02-02T09:40:48;0.25;;;0.20;;
16346;SDS011;8283;48.504;13.734;2023-02-02T09:43:40;1.63;;;0.43;;
16346;SDS011;8283;48.504;13.734;2023-02-02T09:52:28;0.20;;;0.20;;
16346;SDS011;8283;48.504;13.734;2023-02-02T09:58:33;1.17;;;0.52;;
16346;SDS011;8283;48.504;13.734;2023-02-02T10:01:30;0.73;;;0.60;;
16346;SDS011;8283;48.504;13.734;2023-02-02T10:04:21;0.50;;;0.40;;
16346;SDS011;8283;48.504;13.734;2023-02-02T10:07:15;1.08;;;0.35;;
16346;SDS011;8283;48.504;13.734;2023-02-02T10:10:03;2.90;;;1.10;;
16346;SDS011;8283;48.504;13.734;2023-02-02T10:18:47;0.55;;;0.38;;
16346;SDS011;8283;48.504;13.734;2023-02-02T10:21:47;0.10;;;0.10;;
16346;SDS011;8283;48.504;13.734;2023-02-02T10:24:40;1.25;;;0.40;;
16346;SDS011;8283;48.504;13.734;2023-02-02T10:28:01;1.08;;;0.68;;
16346;SDS011;8283;48.504;13.734;2023-02-02T10:30:44;0.60;;;0.40;;
16346;SDS011;8283;48.504;13.734;2023-02-02T10:33:35;0.73;;;0.45;;
16346;SDS011;8283;48.504;13.734;2023-02-02T10:36:43;0.82;;;0.40;;
16346;SDS011;8283;48.504;13.734;2023-02-02T10:40:02;0.40;;;0.40;;
16346;SDS011;8283;48.504;13.734;2023-02-02T10:43:06;1.67;;;0.22;;
16346;SDS011;8283;48.504;13.734;2023-02-02T10:46:32;0.80;;;0.50;;
16346;SDS011;8283;48.504;13.734;2023-02-02T10:52:17;0.47;;;0.40;;
16346;SDS011;8283;48.504;13.734;2023-02-02T11:00:55;0.60;;;0.60;;
16346;SDS011;8283;48.504;13.734;2023-02-02T11:03:41;0.32;;;0.30;;
16346;SDS011;8283;48.504;13.734;2023-02-02T11:06:25;0.85;;;0.40;;
16346;SDS011;8283;48.504;13.734;2023-02-02T11:09:34;0.32;;;0.32;;
16346;SDS011;8283;48.504;13.734;2023-02-02T11:12:32;0.30;;;0.30;;
16346;SDS011;8283;48.504;13.734;2023-02-02T11:15:24;0.47;;;0.40;;
16346;SDS011;8283;48.504;13.734;2023-02-02T11:18:13;0.63;;;0.38;;
16346;SDS011;8283;48.504;13.734;2023-02-02T11:21:20;0.43;;;0.25;;
16346;SDS011;8283;48.504;13.734;2023-02-02T11:24:20;0.25;;;0.25;;
16346;SDS011;8283;48.504;13.734;2023-02-02T11:27:13;0.40;;;0.40;;
16346;SDS011;8283;48.504;13.734;2023-02-02T11:30:09;0.40;;;0.30;;
16346;SDS011;8283;48.504;13.734;2023-02-02T11:36:17;0.40;;;0.40;;
16346;SDS011;8283;48.504;13.734;2023-02-02T11:39:17;0.40;;;0.20;;
16346;SDS011;8283;48.504;13.734;2023-02-02T11:42:05;0.23;;;0.20;;
16346;SDS011;8283;48.504;13.734;2023-02-02T11:47:40;0.45;;;0.30;;
16346;SDS011;8283;48.504;13.734;2023-02-02T11:50:25;0.95;;;0.70;;
16346;SDS011;8283;48.504;13.734;2023-02-02T11:53:59;0.60;;;0.32;;
16346;SDS011;8283;48.504;13.734;2023-02-02T11:56:32;0.30;;;0.30;;
16346;SDS011;8283;48.504;13.734;2023-02-02T11:59:33;0.60;;;0.43;;
16346;SDS011;8283;48.504;13.734;2023-02-02T12:02:24;0.93;;;0.60;;
16346;SDS011;8283;48.504;13.734;2023-02-02T12:07:54;0.93;;;0.68;;
16346;SDS011;8283;48.504;13.734;2023-02-02T12:10:44;0.45;;;0.43;;
16346;SDS011;8283;48.504;13.734;2023-02-02T12:19:31;0.35;;;0.30;;
16346;SDS011;8283;48.504;13.734;2023-02-02T12:25:53;0.43;;;0.40;;
16346;SDS011;8283;48.504;13.734;2023-02-02T12:35:15;0.43;;;0.43;;
16346;SDS011;8283;48.504;13.734;2023-02-02T12:41:21;1.63;;;1.10;;
16346;SDS011;8283;48.504;13.734;2023-02-02T12:47:26;1.27;;;0.70;;
16346;SDS011;8283;48.504;13.734;2023-02-02T13:02:41;1.58;;;0.93;;
16346;SDS011;8283;48.504;13.734;2023-02-02T13:05:50;0.68;;;0.57;;
16346;SDS011;8283;48.504;13.734;2023-02-02T13:11:54;1.30;;;1.00;;
16346;SDS011;8283;48.504;13.734;2023-02-02T13:14:49;2.80;;;0.80;;
16346;SDS011;8283;48.504;13.734;2023-02-02T13:17:38;1.25;;;0.98;;
16346;SDS011;8283;48.504;13.734;2023-02-02T13:20:33;0.93;;;0.80;;
16346;SDS011;8283;48.504;13.734;2023-02-02T13:23:26;1.70;;;1.10;;
16346;SDS011;8283;48.504;13.734;2023-02-02T13:26:19;1.60;;;1.00;;
16346;SDS011;8283;48.504;13.734;2023-02-02T13:29:13;1.10;;;0.98;;
16346;SDS011;8283;48.504;13.734;2023-02-02T13:32:51;0.80;;;0.70;;
16346;SDS011;8283;48.504;13.734;2023-02-02T13:35:41;1.58;;;0.88;;
16346;SDS011;8283;48.504;13.734;2023-02-02T13:38:37;1.00;;;0.77;;
16346;SDS011;8283;48.504;13.734;2023-02-02T13:41:25;1.02;;;0.63;;
16346;SDS011;8283;48.504;13.734;2023-02-02T13:44:20;0.90;;;0.60;;
16346;SDS011;8283;48.504;13.734;2023-02-02T13:50:34;1.23;;;0.88;;
16346;SDS011;8283;48.504;13.734;2023-02-02T14:05:39;2.58;;;1.80;;
16346;SDS011;8283;48.504;13.734;2023-02-02T14:08:24;1.75;;;1.45;;
16346;SDS011;8283;48.504;13.734;2023-02-02T14:11:13;2.08;;;1.60;;
16346;SDS011;8283;48.504;13.734;2023-02-02T14:14:17;3.88;;;1.90;;
16346;SDS011;8283;48.504;13.734;2023-02-02T14:20:01;0.80;;;0.65;;
16346;SDS011;8283;48.504;13.734;2023-02-02T14:22:48;0.80;;;0.68;;
16346;SDS011;8283;48.504;13.734;2023-02-02T14:28:43;1.42;;;1.20;;
16346;SDS011;8283;48.504;13.734;2023-02-02T14:31:40;3.08;;;0.70;;
16346;SDS011;8283;48.504;13.734;2023-02-02T14:34:34;1.10;;;1.00;;
16346;SDS011;8283;48.504;13.734;2023-02-02T14:37:28;1.08;;;0.93;;
16346;SDS011;8283;48.504;13.734;2023-02-02T14:43:49;4.03;;;2.60;;
16346;SDS011;8283;48.504;13.734;2023-02-02T14:46:36;2.88;;;2.13;;
16346;SDS011;8283;48.504;13.734;2023-02-02T14:49:23;3.40;;;1.60;;
16346;SDS011;8283;48.504;13.734;2023-02-02T14:52:18;1.65;;;1.30;;
16346;SDS011;8283;48.504;13.734;2023-02-02T14:55:05;2.13;;;1.50;;
16346;SDS011;8283;48.504;13.734;2023-02-02T14:58:03;2.35;;;2.15;;
16346;SDS011;8283;48.504;13.734;2023-02-02T15:00:56;1.80;;;1.52;;
16346;SDS011;8283;48.504;13.734;2023-02-02T15:03:50;2.22;;;2.00;;
16346;SDS011;8283;48.504;13.734;2023-02-02T15:06:53;1.40;;;1.30;;
16346;SDS011;8283;48.504;13.734;2023-02-02T15:09:38;3.00;;;2.00;;
16346;SDS011;8283;48.504;13.734;2023-02-02T15:15:22;1.75;;;1.48;;
16346;SDS011;8283;48.504;13.734;2023-02-02T15:18:14;2.50;;;1.60;;
16346;SDS011;8283;48.504;13.734;2023-02-02T15:24:00;1.98;;;1.48;;
16346;SDS011;8283;48.504;13.734;2023-02-02T15:26:46;1.92;;;1.65;;
16346;SDS011;8283;48.504;13.734;2023-02-02T15:29:36;1.48;;;1.35;;
16346;SDS011;8283;48.504;13.734;2023-02-02T15:32:28;3.67;;;1.75;;
16346;SDS011;8283;48.504;13.734;2023-02-02T15:35:16;2.15;;;1.50;;
16346;SDS011;8283;48.504;13.734;2023-02-02T15:38:05;1.42;;;1.10;;
16346;SDS011;8283;48.504;13.734;2023-02-02T15:40:55;1.10;;;1.00;;
16346;SDS011;8283;48.504;13.734;2023-02-02T15:43:40;1.63;;;1.13;;
16346;SDS011;8283;48.504;13.734;2023-02-02T15:46:30;1.73;;;1.13;;
16346;SDS011;8283;48.504;13.734;2023-02-02T15:52:08;2.40;;;1.30;;
16346;SDS011;8283;48.504;13.734;2023-02-02T15:54:58;1.83;;;1.17;;
16346;SDS011;8283;48.504;13.734;2023-02-02T15:57:43;1.83;;;1.20;;
16346;SDS011;8283;48.504;13.734;2023-02-02T16:00:29;0.80;;;0.77;;
16346;SDS011;8283;48.504;13.734;2023-02-02T16:03:21;0.85;;;0.75;;
16346;SDS011;8283;48.504;13.734;2023-02-02T16:06:09;1.38;;;0.60;;
16346;SDS011;8283;48.504;13.734;2023-02-02T16:08:55;0.82;;;0.40;;
16346;SDS011;8283;48.504;13.734;2023-02-02T16:11:40;1.73;;;1.25;;
16346;SDS011;8283;48.504;13.734;2023-02-02T16:14:25;1.20;;;0.93;;
16346;SDS011;8283;48.504;13.734;2023-02-02T16:17:10;1.05;;;0.90;;
16346;SDS011;8283;48.504;13.734;2023-02-02T16:20:02;1.20;;;1.00;;
16346;SDS011;8283;48.504;13.734;2023-02-02T16:22:51;1.30;;;0.95;;
16346;SDS011;8283;48.504;13.734;2023-02-02T16:25:41;1.48;;;1.10;;
16346;SDS011;8283;48.504;13.734;2023-02-02T16:28:32;1.08;;;0.90;;
16346;SDS011;8283;48.504;13.734;2023-02-02T16:31:17;1.20;;;1.08;;
16346;SDS011;8283;48.504;13.734;2023-02-02T16:34:02;1.40;;;1.30;;
16346;SDS011;8283;48.504;13.734;2023-02-02T16:37:03;1.50;;;1.20;;
16346;SDS011;8283;48.504;13.734;2023-02-02T16:40:17;2.60;;;1.25;;
16346;SDS011;8283;48.504;13.734;2023-02-02T16:43:25;2.13;;;1.10;;
16346;SDS011;8283;48.504;13.734;2023-02-02T16:46:12;0.98;;;0.90;;
16346;SDS011;8283;48.504;13.734;2023-02-02T16:48:58;1.38;;;1.17;;
16346;SDS011;8283;48.504;13.734;2023-02-02T16:51:44;1.70;;;1.25;;
16346;SDS011;8283;48.504;13.734;2023-02-02T16:54:30;2.53;;;1.85;;
16346;SDS011;8283;48.504;13.734;2023-02-02T16:57:19;2.53;;;1.40;;
16346;SDS011;8283;48.504;13.734;2023-02-02T17:00:16;2.63;;;1.52;;
16346;SDS011;8283;48.504;13.734;2023-02-02T17:03:06;1.98;;;1.65;;
16346;SDS011;8283;48.504;13.734;2023-02-02T17:05:53;3.00;;;1.77;;
16346;SDS011;8283;48.504;13.734;2023-02-02T17:08:38;3.25;;;2.10;;
16346;SDS011;8283;48.504;13.734;2023-02-02T17:11:25;2.90;;;1.55;;
16346;SDS011;8283;48.504;13.734;2023-02-02T17:14:18;2.42;;;1.70;;
16346;SDS011;8283;48.504;13.734;2023-02-02T17:17:04;1.20;;;1.00;;
16346;SDS011;8283;48.504;13.734;2023-02-02T17:19:49;1.20;;;1.10;;
16346;SDS011;8283;48.504;13.734;2023-02-02T17:22:36;1.77;;;1.10;;
16346;SDS011;8283;48.504;13.734;2023-02-02T17:25:34;2.03;;;1.17;;
16346;SDS011;8283;48.504;13.734;2023-02-02T17:28:20;1.60;;;1.30;;
16346;SDS011;8283;48.504;13.734;2023-02-02T17:31:11;1.73;;;1.40;;
16346;SDS011;8283;48.504;13.734;2023-02-02T17:33:57;1.05;;;0.82;;
16346;SDS011;8283;48.504;13.734;2023-02-02T17:36:42;1.85;;;0.80;;
16346;SDS011;8283;48.504;13.734;2023-02-02T17:39:26;1.02;;;0.93;;
16346;SDS011;8283;48.504;13.734;2023-02-02T17:42:18;0.80;;;0.80;;
16346;SDS011;8283;48.504;13.734;2023-02-02T17:45:15;1.00;;;0.82;;
16346;SDS011;8283;48.504;13.734;2023-02-02T17:48:02;1.15;;;0.90;;
16346;SDS011;8283;48.504;13.734;2023-02-02T17:50:48;1.08;;;0.98;;
16346;SDS011;8283;48.504;13.734;2023-02-02T17:53:33;1.05;;;0.98;;
16346;SDS011;8283;48.504;13.734;2023-02-02T17:56:17;1.02;;;0.93;;
16346;SDS011;8283;48.504;13.734;2023-02-02T17:59:03;0.90;;;0.80;;
16346;SDS011;8283;48.504;13.734;2023-02-02T18:01:48;1.20;;;0.80;;
16346;SDS011;8283;48.504;13.734;2023-02-02T18:04:34;0.80;;;0.70;;
16346;SDS011;8283;48.504;13.734;2023-02-02T18:07:18;1.63;;;1.05;;
16346;SDS011;8283;48.504;13.734;2023-02-02T18:10:03;1.15;;;0.90;;
16346;SDS011;8283;48.504;13.734;2023-02-02T18:12:49;1.25;;;1.00;;
16346;SDS011;8283;48.504;13.734;2023-02-02T18:15:33;0.93;;;0.88;;
16346;SDS011;8283;48.504;13.734;2023-02-02T18:18:17;1.45;;;0.95;;
16346;SDS011;8283;48.504;13.734;2023-02-02T18:21:05;0.85;;;0.85;;
16346;SDS011;8283;48.504;13.734;2023-02-02T18:23:51;0.90;;;0.73;;
16346;SDS011;8283;48.504;13.734;2023-02-02T18:26:36;0.95;;;0.77;;
16346;SDS011;8283;48.504;13.734;2023-02-02T18:29:20;0.90;;;0.80;;
16346;SDS011;8283;48.504;13.734;2023-02-02T18:32:04;0.60;;;0.60;;
16346;SDS011;8283;48.504;13.734;2023-02-02T18:34:49;0.77;;;0.60;;
16346;SDS011;8283;48.504;13.734;2023-02-02T18:37:38;1.50;;;1.00;;
16346;SDS011;8283;48.504;13.734;2023-02-02T18:40:23;1.13;;;0.90;;
16346;SDS011;8283;48.504;13.734;2023-02-02T18:43:07;1.52;;;1.20;;
16346;SDS011;8283;48.504;13.734;2023-02-02T18:45:56;1.50;;;1.00;;
16346;SDS011;8283;48.504;13.734;2023-02-02T18:48:44;1.40;;;1.13;;
16346;SDS011;8283;48.504;13.734;2023-02-02T18:51:29;1.25;;;1.02;;